Time;durP1;ratioP1;P1;durP2;ratioP2;P2;SDS_P1;SDS_P2;PMS_P1;PMS_P2;Temp;Humidity;BMP_temperature;BMP_pressure;BME280_temperature;BME280_humidity;BME280_pressure;Samples;Min_cycle;Max_cycle;Signal;HPM_P1;HPM_P2
2022/08/27 00:01:48;;;;;;;;;;;21.80;1.00;;;;;;5051068;28;19909;-84
2022/08/27 00:04:13;;;;;;;;;;;21.80;1.00;;;;;;5051219;28;19908;-85
2022/08/27 00:06:39;;;;;;;;;;;21.80;1.00;;;;;;5051039;28;20042;-85
2022/08/27 00:09:04;;;;;;;;;;;21.80;1.00;;;;;;5051299;28;20399;-85
2022/08/27 00:11:30;;;;;;;;;;;21.70;1.00;;;;;;5052252;28;20292;-86
2022/08/27 00:13:55;;;;;;;;;;;21.70;1.00;;;;;;5052441;28;20276;-85
2022/08/27 00:16:21;;;;;;;;;;;21.70;1.00;;;;;;5051145;28;19909;-85
2022/08/27 00:18:47;;;;;;;;;;;21.60;1.00;;;;;;5051028;28;20352;-85
2022/08/27 00:21:12;;;;;;;;;;;21.40;1.00;;;;;;5052175;28;19962;-85
2022/08/27 00:23:38;;;;;;;;;;;21.40;1.00;;;;;;5051027;28;20776;-85
2022/08/27 00:26:05;;;;;;;;;;;21.40;1.00;;;;;;5050645;28;20004;-86
2022/08/27 00:28:32;;;;;;;;;;;21.30;1.00;;;;;;5051034;28;19917;-85
2022/08/27 00:30:57;;;;;;;;;;;21.30;1.00;;;;;;5050971;28;19913;-85
2022/08/27 00:33:23;;;;;;;;;;;21.30;1.00;;;;;;5052207;28;19909;-85
2022/08/27 00:35:49;;;;;;;;;;;21.40;1.00;;;;;;5050567;28;19908;-86
2022/08/27 00:38:15;;;;;;;;;;;21.30;1.00;;;;;;5051171;28;19939;-86
2022/08/27 00:40:42;;;;;;;;;;;21.30;1.00;;;;;;5050783;28;19922;-86
2022/08/27 00:43:07;;;;;;;;;;;21.20;1.00;;;;;;5050818;28;20419;-85
2022/08/27 00:45:36;;;;;;;;;;;21.20;1.00;;;;;;5050695;28;19951;-85
2022/08/27 00:48:01;;;;;;;;;;;21.20;1.00;;;;;;5050945;28;19916;-85
2022/08/27 00:50:31;;;;;;;;;;;21.20;1.00;;;;;;5050575;28;20360;-85
2022/08/27 00:52:58;;;;;;;;;;;21.20;1.00;;;;;;5054247;28;19920;-85
2022/08/27 00:55:26;;;;;;;;;;;21.10;1.00;;;;;;5055522;28;19919;-85
2022/08/27 00:57:55;;;;;;;;;;;21.10;1.00;;;;;;5053998;28;19913;-86
2022/08/27 01:00:20;;;;;;;;;;;21.20;1.00;;;;;;5054151;28;19909;-85
2022/08/27 01:02:47;;;;;;;;;;;21.20;1.00;;;;;;5054293;28;19915;-85
2022/08/27 01:05:14;;;;;;;;;;;21.20;1.00;;;;;;5054171;28;20012;-85
2022/08/27 01:07:42;;;;;;;;;;;21.20;1.00;;;;;;5053888;28;19909;-85
2022/08/27 01:10:09;;;;;;;;;;;21.10;1.00;;;;;;5053908;28;20288;-85
2022/08/27 01:12:36;;;;;;;;;;;21.10;1.00;;;;;;5053985;28;19920;-85
2022/08/27 01:15:04;;;;;;;;;;;21.10;1.00;;;;;;5053872;28;20003;-86
2022/08/27 01:17:30;;;;;;;;;;;21.00;1.00;;;;;;5054881;28;19969;-86
2022/08/27 01:19:57;;;;;;;;;;;21.00;1.00;;;;;;5053743;28;19999;-85
2022/08/27 01:22:23;;;;;;;;;;;21.00;1.00;;;;;;5053934;28;19916;-85
2022/08/27 01:24:50;;;;;;;;;;;21.00;1.00;;;;;;5053680;28;19912;-85
2022/08/27 01:27:18;;;;;;;;;;;21.00;1.00;;;;;;5053542;28;19908;-85
2022/08/27 01:29:44;;;;;;;;;;;21.00;1.00;;;;;;5053656;28;19915;-86
2022/08/27 01:32:21;;;;;;;;;;;21.00;1.00;;;;;;5053697;28;19909;-84
2022/08/27 01:34:46;;;;;;;;;;;21.10;1.00;;;;;;5053647;28;20390;-86
2022/08/27 01:37:13;;;;;;;;;;;21.10;1.00;;;;;;5053257;28;20002;-86
2022/08/27 01:39:39;;;;;;;;;;;21.10;1.00;;;;;;5053358;28;19909;-85
2022/08/27 01:42:06;;;;;;;;;;;21.00;1.00;;;;;;5054829;28;19917;-86
2022/08/27 01:44:44;;;;;;;;;;;21.10;1.00;;;;;;5053469;28;19909;-86
2022/08/27 01:47:09;;;;;;;;;;;21.00;1.00;;;;;;5053335;28;19909;-85
2022/08/27 01:49:35;;;;;;;;;;;21.10;1.00;;;;;;5053528;28;20323;-86
2022/08/27 01:52:01;;;;;;;;;;;21.10;1.00;;;;;;5054635;28;19915;-87
2022/08/27 01:54:26;;;;;;;;;;;21.10;1.00;;;;;;5053389;28;20362;-86
2022/08/27 01:56:51;;;;;;;;;;;21.10;1.00;;;;;;5053076;28;19910;-86
2022/08/27 01:59:17;;;;;;;;;;;21.10;1.00;;;;;;5053218;28;19919;-86
2022/08/27 02:01:42;;;;;;;;;;;21.00;1.00;;;;;;5053027;28;19909;-86
2022/08/27 02:04:08;;;;;;;;;;;21.00;1.00;;;;;;5053418;28;19996;-85
2022/08/27 02:06:33;;;;;;;;;;;21.00;1.00;;;;;;5052982;28;20318;-85
2022/08/27 02:08:59;;;;;;;;;;;21.00;1.00;;;;;;5053048;28;19916;-85
2022/08/27 02:11:24;;;;;;;;;;;21.00;1.00;;;;;;5052871;28;20503;-85
2022/08/27 02:13:50;;;;;;;;;;;20.90;1.00;;;;;;5053078;28;20003;-85
2022/08/27 02:16:15;;;;;;;;;;;21.00;1.00;;;;;;5052706;28;19909;-85
2022/08/27 02:18:41;;;;;;;;;;;21.00;1.00;;;;;;5052768;28;19912;-85
2022/08/27 02:21:07;;;;;;;;;;;21.00;1.00;;;;;;5052949;28;19909;-86
2022/08/27 02:23:32;;;;;;;;;;;21.00;1.00;;;;;;5052887;28;19908;-85
2022/08/27 02:25:58;;;;;;;;;;;20.90;1.00;;;;;;5052545;28;19913;-86
2022/08/27 02:28:23;;;;;;;;;;;21.00;1.00;;;;;;5052848;28;19955;-85
2022/08/27 02:30:49;;;;;;;;;;;21.00;1.00;;;;;;5052589;28;19909;-87
2022/08/27 02:33:15;;;;;;;;;;;21.00;1.00;;;;;;5052619;28;19908;-87
2022/08/27 02:35:42;;;;;;;;;;;21.00;1.00;;;;;;5052316;28;20364;-87
2022/08/27 02:38:08;;;;;;;;;;;21.00;1.00;;;;;;5052421;28;19913;-86
2022/08/27 02:40:35;;;;;;;;;;;21.00;1.00;;;;;;5052387;28;20015;-85
2022/08/27 02:43:01;;;;;;;;;;;21.00;1.00;;;;;;5053670;28;19916;-85
2022/08/27 02:45:27;;;;;;;;;;;21.00;1.00;;;;;;5053628;28;20288;-85
2022/08/27 02:47:52;;;;;;;;;;;21.00;1.00;;;;;;5053400;28;19909;-86
2022/08/27 02:50:18;;;;;;;;;;;20.80;1.00;;;;;;5052275;28;19959;-86
2022/08/27 02:52:44;;;;;;;;;;;20.80;1.00;;;;;;5052565;28;20548;-84
2022/08/27 02:55:09;;;;;;;;;;;20.80;1.00;;;;;;5052278;28;19916;-85
2022/08/27 02:57:35;;;;;;;;;;;20.80;1.00;;;;;;5051918;28;19966;-85
2022/08/27 03:00:00;;;;;;;;;;;20.80;1.00;;;;;;5053241;28;19909;-84
2022/08/27 03:02:26;;;;;;;;;;;20.70;1.00;;;;;;5051799;28;19916;-85
2022/08/27 03:04:51;;;;;;;;;;;20.70;1.00;;;;;;5051787;28;20012;-86
2022/08/27 03:07:17;;;;;;;;;;;20.60;1.00;;;;;;5052944;28;20360;-86
2022/08/27 03:12:18;;;;;;;;;;;20.50;1.00;;;;;;5086273;22;19928;-82
2022/08/27 03:14:44;;;;;;;;;;;20.60;1.00;;;;;;5070923;28;19958;-82
2022/08/27 03:19:54;;;;;;;;;;;20.60;1.00;;;;;;5072863;28;19962;-82
2022/08/27 03:22:19;;;;;;;;;;;20.60;1.00;;;;;;5072625;28;19908;-82
2022/08/27 03:24:45;;;;;;;;;;;20.70;1.00;;;;;;5071331;28;19995;-82
2022/08/27 03:27:11;;;;;;;;;;;20.70;1.00;;;;;;5071435;28;20004;-82
2022/08/27 03:29:36;;;;;;;;;;;20.80;1.00;;;;;;5071428;28;19913;-82
2022/08/27 03:32:04;;;;;;;;;;;20.80;1.00;;;;;;5071297;28;20279;-82
2022/08/27 03:34:30;;;;;;;;;;;20.80;1.00;;;;;;5069957;28;19912;-82
2022/08/27 03:36:55;;;;;;;;;;;20.70;1.00;;;;;;5061201;28;19995;-82
2022/08/27 03:39:21;;;;;;;;;;;20.60;1.00;;;;;;5051110;28;19966;-82
2022/08/27 03:41:46;;;;;;;;;;;20.70;1.00;;;;;;5051090;28;19936;-82
2022/08/27 03:44:12;;;;;;;;;;;20.70;1.00;;;;;;5052465;28;19909;-82
2022/08/27 03:46:37;;;;;;;;;;;20.70;1.00;;;;;;5052361;28;20291;-82
2022/08/27 03:49:03;;;;;;;;;;;20.70;1.00;;;;;;5052545;28;19992;-81
2022/08/27 03:51:29;;;;;;;;;;;20.70;1.00;;;;;;5052392;28;19908;-82
2022/08/27 03:53:54;;;;;;;;;;;20.80;1.00;;;;;;5052447;28;19999;-82
2022/08/27 03:56:20;;;;;;;;;;;20.80;1.00;;;;;;5052307;28;19909;-82
2022/08/27 03:58:45;;;;;;;;;;;20.80;1.00;;;;;;5050940;28;19917;-82
2022/08/27 04:01:11;;;;;;;;;;;20.80;1.00;;;;;;5052372;28;19913;-83
2022/08/27 04:03:36;;;;;;;;;;;20.80;1.00;;;;;;5050868;28;20364;-82
2022/08/27 04:06:02;;;;;;;;;;;20.80;1.00;;;;;;5051909;28;19913;-82
2022/08/27 04:08:27;;;;;;;;;;;20.90;1.00;;;;;;5052078;28;19916;-83
2022/08/27 04:10:53;;;;;;;;;;;20.90;1.00;;;;;;5067317;28;19951;-82
2022/08/27 04:13:19;;;;;;;;;;;20.90;1.00;;;;;;5052332;28;20354;-82
2022/08/27 04:15:46;;;;;;;;;;;20.80;1.00;;;;;;5050689;28;19909;-82
2022/08/27 04:18:14;;;;;;;;;;;20.80;1.00;;;;;;5050942;28;19991;-82
2022/08/27 04:20:40;;;;;;;;;;;20.80;1.00;;;;;;5052051;28;20398;-83
2022/08/27 04:23:05;;;;;;;;;;;20.80;1.00;;;;;;5052073;28;19909;-82
2022/08/27 04:25:31;;;;;;;;;;;20.80;1.00;;;;;;5050663;28;20364;-82
2022/08/27 04:27:56;;;;;;;;;;;20.80;1.00;;;;;;5055864;28;19919;-82
2022/08/27 04:30:22;;;;;;;;;;;20.80;1.00;;;;;;5055891;28;19909;-82
2022/08/27 04:32:47;;;;;;;;;;;20.80;1.00;;;;;;5071314;28;20435;-82
2022/08/27 04:35:13;;;;;;;;;;;20.80;1.00;;;;;;5055816;28;19979;-82
2022/08/27 04:37:39;;;;;;;;;;;20.80;1.00;;;;;;5054211;28;20008;-82
2022/08/27 04:40:05;;;;;;;;;;;20.80;1.00;;;;;;5054875;28;20383;-82
2022/08/27 04:42:30;;;;;;;;;;;20.70;1.00;;;;;;5054392;28;19908;-82
2022/08/27 04:44:56;;;;;;;;;;;20.80;1.00;;;;;;5054436;28;20343;-82
2022/08/27 04:47:22;;;;;;;;;;;20.80;1.00;;;;;;5055382;28;19996;-83
2022/08/27 04:49:47;;;;;;;;;;;20.70;1.00;;;;;;5055266;28;19974;-83
2022/08/27 04:52:14;;;;;;;;;;;20.70;1.00;;;;;;5054175;28;19909;-82
2022/08/27 04:54:40;;;;;;;;;;;20.70;1.00;;;;;;5054342;28;20275;-82
2022/08/27 04:57:06;;;;;;;;;;;20.70;1.00;;;;;;5054062;28;20393;-82
2022/08/27 04:59:33;;;;;;;;;;;20.60;1.00;;;;;;5054213;28;19913;-82
2022/08/27 05:02:00;;;;;;;;;;;20.60;1.00;;;;;;5053886;28;19916;-82
2022/08/27 05:04:25;;;;;;;;;;;20.70;1.00;;;;;;5054036;28;19957;-81
2022/08/27 05:06:51;;;;;;;;;;;20.70;1.00;;;;;;5053938;28;20003;-82
2022/08/27 05:09:16;;;;;;;;;;;20.70;1.00;;;;;;5055177;28;19912;-81
2022/08/27 05:11:42;;;;;;;;;;;20.70;1.00;;;;;;5055047;28;20008;-82
2022/08/27 05:14:08;;;;;;;;;;;20.60;1.00;;;;;;5054909;28;19960;-81
2022/08/27 05:16:35;;;;;;;;;;;20.60;1.00;;;;;;5053700;28;19908;-83
2022/08/27 05:19:01;;;;;;;;;;;20.70;1.00;;;;;;5053727;28;19991;-82
2022/08/27 05:21:29;;;;;;;;;;;20.60;1.00;;;;;;5053551;28;19942;-82
2022/08/27 05:23:56;;;;;;;;;;;20.60;1.00;;;;;;5053454;28;20372;-82
2022/08/27 05:26:21;;;;;;;;;;;20.50;1.00;;;;;;5054794;28;19916;-82
2022/08/27 05:28:47;;;;;;;;;;;20.50;1.00;;;;;;5055130;28;19909;-83
2022/08/27 05:31:14;;;;;;;;;;;20.50;1.00;;;;;;5053349;28;19944;-83
2022/08/27 05:33:41;;;;;;;;;;;20.50;1.00;;;;;;5053497;28;19909;-82
2022/08/27 05:36:13;;;;;;;;;;;20.40;1.00;;;;;;5053050;28;20342;-83
2022/08/27 05:38:38;;;;;;;;;;;20.50;1.00;;;;;;5052810;28;19912;-82
2022/08/27 05:41:07;;;;;;;;;;;20.50;1.00;;;;;;5054436;28;19908;-84
2022/08/27 05:43:34;;;;;;;;;;;20.50;1.00;;;;;;5053089;28;19955;-83
2022/08/27 05:46:02;;;;;;;;;;;20.40;1.00;;;;;;5052749;28;19913;-83
2022/08/27 05:48:28;;;;;;;;;;;20.40;1.00;;;;;;5054290;28;20346;-82
2022/08/27 05:50:53;;;;;;;;;;;20.40;1.00;;;;;;5054253;28;19999;-82
2022/08/27 05:53:19;;;;;;;;;;;20.40;1.00;;;;;;5054232;28;19932;-81
2022/08/27 05:55:44;;;;;;;;;;;20.30;1.00;;;;;;5053860;28;19917;-82
2022/08/27 06:01:03;;;;;;;;;;;20.20;1.00;;;;;;5053950;28;20019;-82
2022/08/27 06:01:05;;;;;;;;;;;20.30;1.00;;;;;;5054180;28;20011;-82
2022/08/27 06:03:35;;;;;;;;;;;20.20;1.00;;;;;;5053985;28;19909;-82
2022/08/27 06:06:01;;;;;;;;;;;20.10;1.00;;;;;;5052553;28;19909;-82
2022/08/27 06:08:27;;;;;;;;;;;20.00;1.00;;;;;;5052584;28;19912;-82
2022/08/27 06:10:52;;;;;;;;;;;19.90;8.00;;;;;;5053837;28;19962;-81
2022/08/27 06:13:18;;;;;;;;;;;19.80;6.50;;;;;;5053884;28;19915;-82
2022/08/27 06:15:43;;;;;;;;;;;19.80;6.70;;;;;;5052630;28;19999;-82
2022/08/27 06:18:09;;;;;;;;;;;19.70;17.00;;;;;;5052368;28;19919;-82
2022/08/27 06:20:34;;;;;;;;;;;19.60;23.20;;;;;;5052364;28;19908;-82
2022/08/27 06:23:00;;;;;;;;;;;19.60;27.70;;;;;;5052257;28;19909;-83
2022/08/27 06:25:26;;;;;;;;;;;19.50;29.30;;;;;;5052210;28;19909;-83
2022/08/27 06:27:51;;;;;;;;;;;19.50;38.20;;;;;;5052135;28;19909;-82
2022/08/27 06:30:17;;;;;;;;;;;19.40;53.20;;;;;;5052276;28;19932;-83
2022/08/27 06:32:42;;;;;;;;;;;19.40;50.00;;;;;;5053630;28;19915;-84
2022/08/27 06:35:08;;;;;;;;;;;19.30;46.00;;;;;;5053887;28;19908;-82
2022/08/27 06:37:33;;;;;;;;;;;19.30;47.60;;;;;;5054339;28;19940;-83
2022/08/27 06:39:59;;;;;;;;;;;19.20;46.00;;;;;;5054596;28;19975;-83
2022/08/27 06:42:24;;;;;;;;;;;19.20;50.80;;;;;;5053993;28;19909;-82
2022/08/27 06:44:50;;;;;;;;;;;19.00;44.90;;;;;;5054810;28;19963;-83
2022/08/27 06:47:15;;;;;;;;;;;19.00;53.50;;;;;;5054488;28;19916;-83
2022/08/27 06:49:41;;;;;;;;;;;19.00;47.90;;;;;;5055427;28;19916;-84
2022/08/27 06:52:06;;;;;;;;;;;18.90;60.70;;;;;;5056278;28;20284;-84
2022/08/27 06:54:32;;;;;;;;;;;19.00;59.30;;;;;;5057109;28;19908;-83
2022/08/27 06:56:59;;;;;;;;;;;19.00;65.50;;;;;;5056640;28;19909;-83
2022/08/27 06:59:24;;;;;;;;;;;19.00;63.70;;;;;;5070232;28;20287;-83
2022/08/27 07:01:50;;;;;;;;;;;19.00;63.50;;;;;;5056781;28;19908;-83
2022/08/27 07:04:17;;;;;;;;;;;19.00;69.80;;;;;;5053259;28;20339;-82
2022/08/27 07:06:42;;;;;;;;;;;18.90;57.20;;;;;;5057462;28;20364;-83
2022/08/27 07:09:08;;;;;;;;;;;18.90;67.40;;;;;;5056503;28;19909;-83
2022/08/27 07:11:34;;;;;;;;;;;18.90;74.60;;;;;;5054284;28;19917;-83
2022/08/27 07:14:00;;;;;;;;;;;18.90;69.10;;;;;;5071587;28;19916;-84
2022/08/27 07:16:26;;;;;;;;;;;18.90;68.70;;;;;;5053432;28;20377;-83
2022/08/27 07:18:53;;;;;;;;;;;18.90;64.80;;;;;;5057273;28;19944;-83
2022/08/27 07:21:19;;;;;;;;;;;18.90;65.90;;;;;;5056989;28;19909;-83
2022/08/27 07:23:45;;;;;;;;;;;18.90;62.90;;;;;;5059241;28;19916;-83
2022/08/27 07:26:11;;;;;;;;;;;18.90;67.10;;;;;;5054798;28;20383;-83
2022/08/27 07:28:37;;;;;;;;;;;19.00;76.60;;;;;;5060184;28;19917;-83
2022/08/27 07:31:07;;;;;;;;;;;19.00;68.70;;;;;;5059081;28;20357;-83
2022/08/27 07:33:34;;;;;;;;;;;19.00;73.00;;;;;;5055744;28;19936;-82
2022/08/27 07:35:59;;;;;;;;;;;19.00;62.80;;;;;;5052541;28;19909;-82
2022/08/27 07:38:26;;;;;;;;;;;19.00;57.80;;;;;;5051466;28;20016;-82
2022/08/27 07:40:51;;;;;;;;;;;19.00;68.10;;;;;;5052898;28;19967;-82
2022/08/27 07:46:01;;;;;;;;;;;19.10;68.80;;;;;;5052567;28;19916;-82
2022/08/27 07:48:27;;;;;;;;;;;19.10;61.90;;;;;;5052914;28;19909;-82
2022/08/27 07:50:53;;;;;;;;;;;19.10;63.40;;;;;;5051417;28;20368;-83
2022/08/27 07:53:19;;;;;;;;;;;19.20;68.80;;;;;;5052234;28;19909;-83
2022/08/27 07:55:45;;;;;;;;;;;19.30;58.20;;;;;;5051916;28;20369;-83
2022/08/27 07:58:12;;;;;;;;;;;19.30;54.90;;;;;;5050787;28;20066;-83
2022/08/27 08:00:39;;;;;;;;;;;19.40;50.00;;;;;;5052546;28;19909;-83
2022/08/27 08:03:05;;;;;;;;;;;19.40;52.50;;;;;;5056113;28;20280;-83
2022/08/27 08:05:30;;;;;;;;;;;19.30;40.60;;;;;;5056048;28;19916;-83
2022/08/27 08:07:56;;;;;;;;;;;19.30;47.20;;;;;;5056013;28;19913;-84
2022/08/27 08:10:22;;;;;;;;;;;19.40;46.10;;;;;;5055868;28;19986;-83
2022/08/27 08:12:47;;;;;;;;;;;19.30;39.80;;;;;;5073551;28;19916;-84
2022/08/27 08:15:14;;;;;;;;;;;19.30;36.70;;;;;;5073917;28;19912;-84
2022/08/27 08:17:39;;;;;;;;;;;19.30;36.00;;;;;;5059356;28;19913;-85
2022/08/27 08:20:06;;;;;;;;;;;19.40;34.10;;;;;;5076234;28;19941;-85
2022/08/27 08:22:31;;;;;;;;;;;19.50;33.10;;;;;;5073817;28;19909;-84
2022/08/27 08:24:57;;;;;;;;;;;19.60;31.50;;;;;;5065187;28;20273;-82
2022/08/27 08:27:22;;;;;;;;;;;19.70;26.80;;;;;;5074716;28;19959;-82
2022/08/27 08:29:49;;;;;;;;;;;19.80;21.50;;;;;;5078673;28;19915;-83
2022/08/27 08:32:15;;;;;;;;;;;19.90;18.40;;;;;;5076920;28;20279;-83
2022/08/27 08:34:40;;;;;;;;;;;20.00;11.10;;;;;;5077049;28;19916;-84
2022/08/27 08:37:06;;;;;;;;;;;20.00;5.00;;;;;;5077535;28;19912;-82
2022/08/27 08:39:32;;;;;;;;;;;20.10;2.80;;;;;;5078147;28;19960;-82
2022/08/27 08:41:58;;;;;;;;;;;20.10;3.40;;;;;;5077746;28;19909;-83
2022/08/27 08:44:35;;;;;;;;;;;20.10;1.00;;;;;;5074755;28;19908;-84
2022/08/27 08:47:10;;;;;;;;;;;20.10;1.50;;;;;;5057884;28;20290;-84
2022/08/27 08:49:36;;;;;;;;;;;20.20;1.00;;;;;;5065080;28;19912;-86
2022/08/27 08:52:21;;;;;;;;;;;20.20;1.00;;;;;;5068079;28;20488;-87
2022/08/27 08:54:48;;;;;;;;;;;20.30;1.00;;;;;;5041308;28;19908;-85
2022/08/27 08:57:24;;;;;;;;;;;20.40;1.00;;;;;;5058112;28;19931;-85
2022/08/27 08:59:55;;;;;;;;;;;20.40;1.00;;;;;;5054358;28;19920;-82
2022/08/27 09:02:21;;;;;;;;;;;20.50;1.00;;;;;;5054068;28;19959;-81
2022/08/27 09:04:46;;;;;;;;;;;20.60;1.00;;;;;;5055179;28;19913;-82
2022/08/27 09:07:32;;;;;;;;;;;20.70;1.00;;;;;;5053668;28;19908;-83
2022/08/27 09:10:02;;;;;;;;;;;20.70;1.00;;;;;;5067204;28;19913;-83
2022/08/27 09:12:31;;;;;;;;;;;20.70;1.00;;;;;;5062303;22;20337;-84
2022/08/27 09:14:59;;;;;;;;;;;20.80;1.00;;;;;;5047908;28;19908;-86
2022/08/27 09:17:25;;;;;;;;;;;20.80;1.00;;;;;;5043436;28;19913;-83
2022/08/27 09:19:50;;;;;;;;;;;20.80;1.00;;;;;;5053634;28;19916;-85
2022/08/27 09:22:30;;;;;;;;;;;20.80;1.00;;;;;;5053564;28;20015;-85
2022/08/27 09:25:06;;;;;;;;;;;20.80;1.00;;;;;;5053822;28;20272;-81
2022/08/27 09:27:33;;;;;;;;;;;20.90;1.00;;;;;;5052370;28;19909;-86
2022/08/27 09:30:03;;;;;;;;;;;20.90;1.00;;;;;;5053277;28;19931;-85
2022/08/27 09:32:32;;;;;;;;;;;20.80;1.00;;;;;;5054373;28;19909;-85
2022/08/27 09:34:58;;;;;;;;;;;20.80;1.00;;;;;;5046347;28;19913;-86
2022/08/27 09:37:26;;;;;;;;;;;20.90;1.00;;;;;;5035786;28;19910;-81
2022/08/27 09:40:06;;;;;;;;;;;20.90;1.00;;;;;;5052588;28;19944;-82
2022/08/27 09:42:45;;;;;;;;;;;21.00;1.00;;;;;;5054500;28;19909;-85
2022/08/27 09:45:24;;;;;;;;;;;21.00;1.00;;;;;;5038412;28;19909;-84
2022/08/27 09:47:51;;;;;;;;;;;21.20;1.00;;;;;;5032378;28;19913;-85
2022/08/27 09:50:18;;;;;;;;;;;21.20;1.00;;;;;;5034237;28;19920;-85
2022/08/27 09:52:47;;;;;;;;;;;21.10;1.00;;;;;;5032972;28;20284;-86
2022/08/27 09:55:24;;;;;;;;;;;21.20;1.00;;;;;;5032853;28;19916;-86
2022/08/27 09:57:49;;;;;;;;;;;21.30;1.00;;;;;;5033939;28;19933;-86
2022/08/27 10:00:16;;;;;;;;;;;21.40;1.00;;;;;;5034127;28;20365;-86
2022/08/27 10:02:49;;;;;;;;;;;21.30;1.00;;;;;;5033042;28;19963;-87
2022/08/27 10:05:17;;;;;;;;;;;21.30;1.00;;;;;;5032756;28;19909;-87
2022/08/27 10:07:52;;;;;;;;;;;21.30;1.00;;;;;;5032666;28;19955;-87
2022/08/27 10:10:24;;;;;;;;;;;21.40;1.00;;;;;;5032861;28;19920;-84
2022/08/27 10:12:57;;;;;;;;;;;21.40;1.00;;;;;;5033716;28;19921;-87
2022/08/27 10:15:24;;;;;;;;;;;21.40;1.00;;;;;;5033828;28;19963;-84
2022/08/27 10:18:09;;;;;;;;;;;21.50;1.00;;;;;;5032558;28;20350;-84
2022/08/27 10:20:53;;;;;;;;;;;21.60;1.00;;;;;;5032473;28;19909;-86
2022/08/27 10:23:28;;;;;;;;;;;21.60;1.00;;;;;;5033594;28;19960;-85
2022/08/27 10:26:12;;;;;;;;;;;21.70;99.90;;;;;;5032040;28;19909;-85
2022/08/27 10:28:43;;;;;;;;;;;21.70;99.90;;;;;;5032259;28;19914;-86
2022/08/27 10:31:15;;;;;;;;;;;21.80;99.90;;;;;;5032105;28;19913;-86
2022/08/27 10:33:58;;;;;;;;;;;21.80;99.90;;;;;;5032383;28;19909;-86
2022/08/27 10:36:30;;;;;;;;;;;21.80;99.90;;;;;;5033295;28;19916;-87
2022/08/27 10:39:00;;;;;;;;;;;21.80;99.90;;;;;;5032245;28;19917;-87
2022/08/27 10:41:46;;;;;;;;;;;21.80;99.90;;;;;;5032041;28;19909;-85
2022/08/27 10:44:30;;;;;;;;;;;21.80;99.90;;;;;;5031594;28;19960;-86
2022/08/27 10:47:04;;;;;;;;;;;21.80;99.90;;;;;;5031849;28;19913;-86
2022/08/27 10:49:32;;;;;;;;;;;21.90;99.90;;;;;;5033382;28;19913;-85
2022/08/27 10:52:11;;;;;;;;;;;21.90;99.90;;;;;;5031898;28;20321;-86
2022/08/27 10:54:43;;;;;;;;;;;22.00;99.90;;;;;;5031883;28;19988;-85
2022/08/27 10:57:21;;;;;;;;;;;22.10;99.90;;;;;;5032925;28;19909;-86
2022/08/27 10:59:47;;;;;;;;;;;22.20;99.90;;;;;;5031818;28;19920;-84
2022/08/27 11:02:18;;;;;;;;;;;22.20;99.90;;;;;;5031760;28;19909;-84
2022/08/27 11:04:56;;;;;;;;;;;22.20;99.90;;;;;;5032931;28;19919;-86
2022/08/27 11:07:24;;;;;;;;;;;22.20;1.00;;;;;;5031577;28;19915;-85
2022/08/27 11:09:53;;;;;;;;;;;22.20;1.00;;;;;;5032896;28;19975;-86
2022/08/27 11:12:23;;;;;;;;;;;22.30;1.00;;;;;;5031515;28;19971;-87
2022/08/27 11:14:55;;;;;;;;;;;22.30;1.00;;;;;;5031504;28;20364;-86
2022/08/27 11:17:33;;;;;;;;;;;22.30;1.00;;;;;;5031565;28;19909;-85
2022/08/27 11:20:03;;;;;;;;;;;22.50;1.00;;;;;;5031376;28;20004;-86
2022/08/27 11:25:38;;;;;;;;;;;22.60;64.80;;;;;;5032693;28;20245;-84
2022/08/27 11:28:05;;;;;;;;;;;22.70;99.90;;;;;;5031330;28;20347;-86
2022/08/27 11:30:30;;;;;;;;;;;22.70;43.40;;;;;;5031291;28;19910;-87
2022/08/27 11:32:56;;;;;;;;;;;22.70;99.90;;;;;;5031348;28;19963;-86
2022/08/27 11:35:51;;;;;;;;;;;22.70;99.90;;;;;;5030941;28;19913;-87
2022/08/27 11:38:17;;;;;;;;;;;22.70;94.90;;;;;;4995738;28;19929;-86
2022/08/27 11:40:42;;;;;;;;;;;22.80;99.90;;;;;;5031227;28;19909;-86
2022/08/27 11:43:09;;;;;;;;;;;22.80;99.90;;;;;;5031098;28;19952;-85
2022/08/27 11:45:39;;;;;;;;;;;22.70;99.90;;;;;;5030913;28;19909;-86
2022/08/27 11:48:37;;;;;;;;;;;22.70;1.00;;;;;;5031262;28;19932;-88
2022/08/27 11:51:08;;;;;;;;;;;22.80;1.00;;;;;;5009477;28;20388;-86
2022/08/27 11:53:34;;;;;;;;;;;22.80;1.00;;;;;;5031038;28;19909;-87
2022/08/27 11:56:14;;;;;;;;;;;23.00;1.00;;;;;;5030938;28;19913;-87
2022/08/27 11:58:41;;;;;;;;;;;23.10;1.00;;;;;;5031003;28;19921;-87
2022/08/27 12:01:24;;;;;;;;;;;23.20;99.90;;;;;;5031021;28;19910;-85
2022/08/27 12:03:58;;;;;;;;;;;23.30;99.90;;;;;;5031159;28;19920;-86
2022/08/27 12:06:25;;;;;;;;;;;23.40;99.90;;;;;;5030699;28;19909;-85
2022/08/27 12:08:51;;;;;;;;;;;23.50;1.00;;;;;;5032165;28;19910;-86
2022/08/27 12:11:20;;;;;;;;;;;23.60;1.00;;;;;;5031929;28;19967;-85
2022/08/27 12:13:54;;;;;;;;;;;23.80;99.90;;;;;;5032055;28;19915;-86
2022/08/27 12:16:27;;;;;;;;;;;24.10;99.90;;;;;;5032247;28;19913;-85
2022/08/27 12:19:01;;;;;;;;;;;24.10;99.90;;;;;;5032036;28;20300;-86
2022/08/27 12:21:36;;;;;;;;;;;24.20;1.00;;;;;;5032079;28;19909;-87
2022/08/27 12:24:12;;;;;;;;;;;24.20;99.90;;;;;;5032208;28;20438;-87
2022/08/27 12:26:38;;;;;;;;;;;24.20;1.00;;;;;;5030668;28;19917;-85
2022/08/27 12:29:19;;;;;;;;;;;24.30;1.00;;;;;;5030875;28;19909;-88
2022/08/27 12:31:47;;;;;;;;;;;24.40;99.90;;;;;;5030703;28;20269;-87
2022/08/27 12:34:17;;;;;;;;;;;24.40;99.90;;;;;;5032068;28;19953;-87
2022/08/27 12:36:43;;;;;;;;;;;24.50;99.90;;;;;;5030359;28;20361;-86
2022/08/27 12:39:14;;;;;;;;;;;24.60;99.90;;;;;;5031907;28;19914;-86
2022/08/27 12:41:43;;;;;;;;;;;24.60;99.90;;;;;;5030538;28;19913;-85
2022/08/27 12:44:11;;;;;;;;;;;24.60;99.90;;;;;;5030988;28;19910;-86
2022/08/27 12:46:50;;;;;;;;;;;24.60;99.90;;;;;;5030440;28;20427;-85
2022/08/27 12:49:18;;;;;;;;;;;24.60;99.90;;;;;;5035517;28;19931;-86
2022/08/27 12:51:44;;;;;;;;;;;24.70;99.90;;;;;;5035422;28;19913;-86
2022/08/27 12:54:28;;;;;;;;;;;24.70;99.90;;;;;;5034189;28;19913;-86
2022/08/27 12:57:10;;;;;;;;;;;24.70;99.90;;;;;;5034970;28;19921;-86
2022/08/27 12:59:40;;;;;;;;;;;24.70;99.90;;;;;;5034175;28;19947;-84
2022/08/27 13:02:14;;;;;;;;;;;24.80;75.40;;;;;;5034045;28;19909;-87
2022/08/27 13:04:40;;;;;;;;;;;24.80;27.90;;;;;;5034164;28;19964;-87
2022/08/27 13:07:06;;;;;;;;;;;24.80;1.00;;;;;;5033819;28;20435;-86
2022/08/27 13:09:37;;;;;;;;;;;24.60;1.00;;;;;;5034055;28;19991;-84
2022/08/27 13:12:04;;;;;;;;;;;24.60;1.00;;;;;;5033598;28;19940;-84
2022/08/27 13:14:39;;;;;;;;;;;24.60;65.70;;;;;;5033819;28;19913;-85
2022/08/27 13:17:09;;;;;;;;;;;24.60;99.90;;;;;;5034782;28;20020;-86
2022/08/27 13:19:36;;;;;;;;;;;24.60;99.90;;;;;;5033664;28;19913;-85
2022/08/27 13:22:04;;;;;;;;;;;24.60;99.90;;;;;;5033645;28;19963;-86
2022/08/27 13:24:31;;;;;;;;;;;24.70;99.90;;;;;;5033416;28;19919;-86
2022/08/27 13:26:57;;;;;;;;;;;24.70;53.50;;;;;;5034568;28;19909;-86
2022/08/27 13:29:23;;;;;;;;;;;24.70;99.90;;;;;;5033526;28;20362;-86
2022/08/27 13:31:49;;;;;;;;;;;24.80;99.90;;;;;;5033333;28;19909;-86
2022/08/27 13:34:18;;;;;;;;;;;24.80;20.00;;;;;;5033390;28;19932;-88
2022/08/27 13:36:54;;;;;;;;;;;24.80;38.40;;;;;;5034518;28;19910;-86
2022/08/27 13:39:20;;;;;;;;;;;24.80;1.00;;;;;;5033257;28;19920;-86
2022/08/27 13:41:46;;;;;;;;;;;24.70;1.00;;;;;;5034453;28;19909;-87
2022/08/27 13:44:30;;;;;;;;;;;24.50;1.00;;;;;;5034569;28;19967;-84
2022/08/27 13:47:00;;;;;;;;;;;24.50;1.00;;;;;;5034536;28;19952;-86
2022/08/27 13:49:27;;;;;;;;;;;24.60;1.00;;;;;;5034565;28;19909;-84
2022/08/27 13:52:02;;;;;;;;;;;24.60;1.00;;;;;;5033134;28;19909;-86
2022/08/27 13:54:28;;;;;;;;;;;24.60;1.00;;;;;;5033021;28;20383;-86
2022/08/27 13:57:02;;;;;;;;;;;24.60;16.00;;;;;;5032658;28;19948;-86
2022/08/27 13:59:29;;;;;;;;;;;24.60;1.00;;;;;;5032619;28;20007;-87
2022/08/27 14:02:00;;;;;;;;;;;24.60;1.00;;;;;;5032774;28;20368;-86
2022/08/27 14:04:42;;;;;;;;;;;24.60;1.00;;;;;;5052327;28;19916;-84
2022/08/27 14:07:08;;;;;;;;;;;24.60;1.00;;;;;;5037208;28;20391;-83
2022/08/27 14:09:39;;;;;;;;;;;24.50;1.00;;;;;;5053705;28;19909;-85
2022/08/27 14:12:07;;;;;;;;;;;24.50;1.00;;;;;;5053205;28;19917;-85
2022/08/27 14:14:37;;;;;;;;;;;24.50;1.00;;;;;;5052933;28;20319;-82
2022/08/27 14:17:03;;;;;;;;;;;24.60;1.00;;;;;;5053849;28;19916;-84
2022/08/27 14:19:31;;;;;;;;;;;24.70;1.00;;;;;;5046751;28;19913;-86
2022/08/27 14:21:56;;;;;;;;;;;24.70;1.00;;;;;;5032649;28;19909;-86
2022/08/27 14:24:25;;;;;;;;;;;24.70;1.00;;;;;;5033046;28;20610;-87
2022/08/27 14:26:52;;;;;;;;;;;24.70;1.00;;;;;;5032798;28;19909;-87
2022/08/27 14:29:18;;;;;;;;;;;24.60;1.00;;;;;;5032685;28;19995;-85
2022/08/27 14:31:44;;;;;;;;;;;24.50;1.00;;;;;;5033544;28;19916;-85
2022/08/27 14:34:09;;;;;;;;;;;24.40;1.00;;;;;;5032760;28;19913;-85
2022/08/27 14:36:36;;;;;;;;;;;24.40;1.00;;;;;;5033652;28;20296;-84
2022/08/27 14:39:02;;;;;;;;;;;24.50;1.00;;;;;;5032466;28;19913;-86
2022/08/27 14:41:27;;;;;;;;;;;24.30;1.00;;;;;;5034171;28;20293;-84
2022/08/27 14:43:53;;;;;;;;;;;24.30;1.00;;;;;;5053356;28;19920;-86